Time,TemperatureF,DewpointF,PressureIn,WindDirection,WindDirectionDegrees,WindSpeedMPH,WindSpeedGustMPH,Humidity,HourlyPrecipIn,Conditions,Clouds,dailyrainin,SoftwareType,DateUTC
2013-04-22 00:04:00,43.4,39.8,30.00,North,0,5.6,7.4,87,0.00,,,0.00,WUHU216HW,2013-04-22 05:04:00,
2013-04-22 00:09:00,43.0,39.1,30.00,West,270,1.8,7.4,86,0.00,,,0.00,WUHU216HW,2013-04-22 05:09:00,
2013-04-22 00:14:00,43.0,39.4,30.00,NNW,338,2.7,4.9,87,0.00,,,0.00,WUHU216HW,2013-04-22 05:14:00,
2013-04-22 00:19:00,42.8,39.3,30.01,West,270,3.4,6.7,87,0.00,,,0.00,WUHU216HW,2013-04-22 05:19:00,
2013-04-22 00:24:00,42.7,39.1,30.00,West,270,6.9,6.9,87,0.00,,,0.00,WUHU216HW,2013-04-22 05:24:00,
2013-04-22 00:29:00,42.5,38.9,30.01,WNW,293,2.5,6.9,87,0.00,,,0.00,WUHU216HW,2013-04-22 05:29:00,
2013-04-22 00:35:00,42.5,38.9,30.01,NW,315,1.3,4.7,87,0.00,,,0.00,WUHU216HW,2013-04-22 05:35:00,
2013-04-22 00:40:00,42.3,38.7,30.01,West,270,2.5,4.7,87,0.00,,,0.00,WUHU216HW,2013-04-22 05:40:00,
2013-04-22 00:45:00,42.3,38.7,30.01,WNW,293,2.5,2.7,87,0.00,,,0.00,WUHU216HW,2013-04-22 05:45:00,
2013-04-22 00:50:00,42.3,38.7,30.01,WNW,293,2.9,2.9,87,0.00,,,0.00,WUHU216HW,2013-04-22 05:50:00,
2013-04-22 00:55:00,42.1,38.5,30.01,WNW,293,1.8,3.1,87,0.00,,,0.00,WUHU216HW,2013-04-22 05:55:00,
2013-04-22 01:00:00,42.1,38.5,30.01,NW,315,2.0,4.0,87,0.00,,,0.00,WUHU216HW,2013-04-22 06:00:00,
2013-04-22 01:05:00,42.1,38.5,30.01,West,270,3.4,4.0,87,0.00,,,0.00,WUHU216HW,2013-04-22 06:05:00,
2013-04-22 01:10:00,42.1,38.5,30.02,WNW,293,3.8,4.3,87,0.00,,,0.00,WUHU216HW,2013-04-22 06:10:00,
2013-04-22 01:16:00,41.9,38.4,30.02,WNW,293,1.8,4.3,87,0.00,,,0.00,WUHU216HW,2013-04-22 06:16:00,
2013-04-22 01:21:00,41.9,38.4,30.02,NNW,338,2.2,2.7,87,0.00,,,0.00,WUHU216HW,2013-04-22 06:21:00,
2013-04-22 01:26:00,41.9,38.4,30.01,North,0,3.4,4.7,87,0.00,,,0.00,WUHU216HW,2013-04-22 06:26:00,
2013-04-22 01:31:00,41.8,38.2,30.01,NNW,338,2.2,4.7,87,0.00,,,0.00,WUHU216HW,2013-04-22 06:31:00,
2013-04-22 01:36:00,41.8,38.2,30.01,NNW,338,2.0,4.0,87,0.00,,,0.00,WUHU216HW,2013-04-22 06:36:00,
2013-04-22 01:41:00,41.6,38.0,30.01,NW,315,0.7,4.0,87,0.00,,,0.00,WUHU216HW,2013-04-22 06:41:00,
2013-04-22 01:46:00,41.8,38.2,30.01,NW,315,1.8,2.2,87,0.00,,,0.00,WUHU216HW,2013-04-22 06:46:00,
2013-04-22 01:51:00,41.8,38.2,30.01,North,0,1.1,2.2,87,0.00,,,0.00,WUHU216HW,2013-04-22 06:51:00,
2013-04-22 01:56:00,41.6,38.0,30.01,North,0,0.7,3.6,87,0.00,,,0.00,WUHU216HW,2013-04-22 06:56:00,
2013-04-22 02:02:00,41.6,38.0,30.01,NNW,338,2.0,3.6,87,0.00,,,0.00,WUHU216HW,2013-04-22 07:02:00,
2013-04-22 02:07:00,41.6,38.0,30.01,North,0,0.2,2.0,87,0.00,,,0.00,WUHU216HW,2013-04-22 07:07:00,
2013-04-22 02:12:00,41.6,38.0,30.01,NNW,338,1.3,2.0,87,0.00,,,0.00,WUHU216HW,2013-04-22 07:12:00,
2013-04-22 02:17:00,41.6,38.3,30.01,West,270,1.8,1.8,88,0.00,,,0.00,WUHU216HW,2013-04-22 07:17:00,
2013-04-22 02:22:00,41.6,38.3,30.00,WNW,293,1.1,2.5,88,0.00,,,0.00,WUHU216HW,2013-04-22 07:22:00,
2013-04-22 02:27:00,41.6,38.3,30.00,WNW,293,1.1,2.5,88,0.00,,,0.00,WUHU216HW,2013-04-22 07:27:00,
2013-04-22 02:32:00,41.4,38.1,30.00,NW,315,2.5,2.5,88,0.00,,,0.00,WUHU216HW,2013-04-22 07:32:00,
2013-04-22 02:37:00,41.4,38.1,30.00,WNW,293,1.8,2.5,88,0.00,,,0.00,WUHU216HW,2013-04-22 07:37:00,
2013-04-22 02:42:00,41.4,38.1,30.00,SW,225,0.9,1.8,88,0.00,,,0.00,WUHU216HW,2013-04-22 07:42:00,
2013-04-22 02:48:00,41.4,38.1,30.00,NNW,338,0.7,1.8,88,0.00,,,0.00,WUHU216HW,2013-04-22 07:48:00,
2013-04-22 02:53:00,41.4,38.1,30.00,NNW,338,0.9,1.8,88,0.00,,,0.00,WUHU216HW,2013-04-22 07:53:00,
2013-04-22 02:58:00,41.4,38.1,30.00,West,270,1.3,2.0,88,0.00,,,0.00,WUHU216HW,2013-04-22 07:58:00,
2013-04-22 03:03:00,41.2,37.9,30.00,NNW,338,1.8,2.5,88,0.00,,,0.00,WUHU216HW,2013-04-22 08:03:00,
2013-04-22 03:08:00,41.0,37.7,30.00,NNW,338,3.1,3.1,88,0.00,,,0.00,WUHU216HW,2013-04-22 08:08:00,
2013-04-22 03:13:00,40.7,37.4,30.00,NW,315,3.8,3.8,88,0.00,,,0.00,WUHU216HW,2013-04-22 08:13:00,
2013-04-22 03:18:00,40.7,37.7,30.00,NW,315,2.0,4.0,89,0.00,,,0.00,WUHU216HW,2013-04-22 08:18:00,
2013-04-22 03:23:00,40.5,37.5,30.01,NNW,338,2.5,4.0,89,0.00,,,0.00,WUHU216HW,2013-04-22 08:23:00,
2013-04-22 03:28:00,40.3,37.4,30.00,NNW,338,4.3,4.3,89,0.00,,,0.00,WUHU216HW,2013-04-22 08:28:00,
2013-04-22 03:34:00,40.1,37.2,30.01,NNW,338,2.2,4.3,89,0.00,,,0.00,WUHU216HW,2013-04-22 08:34:00,
2013-04-22 03:39:00,40.1,37.2,30.01,NW,315,2.7,3.8,89,0.00,,,0.00,WUHU216HW,2013-04-22 08:39:00,
2013-04-22 03:44:00,40.0,37.0,30.01,NNW,338,3.1,3.8,89,0.00,,,0.00,WUHU216HW,2013-04-22 08:44:00,
2013-04-22 03:49:00,40.0,37.0,30.01,NNW,338,1.1,3.1,89,0.00,,,0.00,WUHU216HW,2013-04-22 08:49:00,
2013-04-22 03:54:00,40.0,37.0,30.01,NNW,338,1.1,3.4,89,0.00,,,0.00,WUHU216HW,2013-04-22 08:54:00,
2013-04-22 03:59:00,40.0,37.0,30.01,NNW,338,3.1,3.1,89,0.00,,,0.00,WUHU216HW,2013-04-22 08:59:00,
2013-04-22 04:04:00,40.0,37.0,30.01,NNW,338,1.8,3.1,89,0.00,,,0.00,WUHU216HW,2013-04-22 09:04:00,
2013-04-22 04:09:00,39.8,36.8,30.01,NNW,338,1.6,2.5,89,0.00,,,0.00,WUHU216HW,2013-04-22 09:09:00,
2013-04-22 04:15:00,39.6,36.6,30.01,NNW,338,3.8,5.1,89,0.00,,,0.00,WUHU216HW,2013-04-22 09:15:00,
2013-04-22 04:20:00,39.6,36.6,30.01,NNW,338,4.0,5.1,89,0.00,,,0.00,WUHU216HW,2013-04-22 09:20:00,
2013-04-22 04:25:00,39.4,36.5,30.00,North,0,2.9,4.0,89,0.00,,,0.00,WUHU216HW,2013-04-22 09:25:00,
2013-04-22 04:30:00,39.2,36.5,30.00,NNW,338,4.0,4.0,90,0.00,,,0.00,WUHU216HW,2013-04-22 09:30:00,
2013-04-22 04:35:00,39.2,36.5,30.00,North,0,1.6,4.0,90,0.00,,,0.00,WUHU216HW,2013-04-22 09:35:00,
2013-04-22 04:40:00,39.2,36.5,30.01,NNE,23,0.9,3.1,90,0.00,,,0.00,WUHU216HW,2013-04-22 09:40:00,
2013-04-22 04:45:00,39.1,36.4,30.00,North,0,1.3,3.6,90,0.00,,,0.00,WUHU216HW,2013-04-22 09:45:00,
2013-04-22 04:50:00,38.9,36.2,30.01,North,0,2.5,2.5,90,0.00,,,0.00,WUHU216HW,2013-04-22 09:50:00,
2013-04-22 04:55:00,38.9,36.2,30.01,North,0,4.0,4.0,90,0.00,,,0.00,WUHU216HW,2013-04-22 09:55:00,
2013-04-22 05:00:00,38.9,36.2,30.01,NNW,338,2.2,4.0,90,0.00,,,0.00,WUHU216HW,2013-04-22 10:00:00,
2013-04-22 05:06:00,38.9,36.2,30.01,NNW,338,2.2,3.4,90,0.00,,,0.00,WUHU216HW,2013-04-22 10:06:00,
2013-04-22 05:11:00,38.9,36.2,30.01,North,0,4.7,4.7,90,0.00,,,0.00,WUHU216HW,2013-04-22 10:11:00,
2013-04-22 05:16:00,38.7,36.0,30.02,NNW,338,2.0,4.7,90,0.00,,,0.00,WUHU216HW,2013-04-22 10:16:00,
2013-04-22 05:21:00,38.9,36.2,30.02,North,0,2.7,5.4,90,0.00,,,0.00,WUHU216HW,2013-04-22 10:21:00,
2013-04-22 05:26:00,38.7,36.0,30.02,North,0,5.4,5.4,90,0.00,,,0.00,WUHU216HW,2013-04-22 10:26:00,
2013-04-22 05:31:00,38.5,35.8,30.02,North,0,2.5,5.4,90,0.00,,,0.00,WUHU216HW,2013-04-22 10:31:00,
2013-04-22 05:36:00,38.7,36.0,30.01,North,0,0.7,3.4,90,0.00,,,0.00,WUHU216HW,2013-04-22 10:36:00,
2013-04-22 05:42:00,38.5,35.8,30.01,NNE,23,2.2,4.0,90,0.00,,,0.00,WUHU216HW,2013-04-22 10:42:00,
2013-04-22 05:47:00,38.5,35.8,30.01,North,0,2.5,4.0,90,0.00,,,0.00,WUHU216HW,2013-04-22 10:47:00,
2013-04-22 05:52:00,38.3,35.6,30.01,North,0,3.1,4.7,90,0.00,,,0.00,WUHU216HW,2013-04-22 10:52:00,
2013-04-22 05:57:00,38.2,35.5,30.01,North,0,3.8,5.6,90,0.00,,,0.00,WUHU216HW,2013-04-22 10:57:00,
2013-04-22 06:02:00,38.2,35.5,30.02,NNW,338,4.9,5.4,90,0.00,,,0.00,WUHU216HW,2013-04-22 11:02:00,
2013-04-22 06:07:00,38.0,35.3,30.02,North,0,2.5,5.4,90,0.00,,,0.00,WUHU216HW,2013-04-22 11:07:00,
2013-04-22 06:12:00,38.0,35.6,30.01,NNE,23,2.0,4.0,91,0.00,,,0.00,WUHU216HW,2013-04-22 11:12:00,
2013-04-22 06:17:00,37.8,35.4,30.02,North,0,2.5,4.0,91,0.00,,,0.00,WUHU216HW,2013-04-22 11:17:00,
2013-04-22 06:23:00,37.8,35.1,30.01,North,0,2.0,5.1,90,0.00,,,0.00,WUHU216HW,2013-04-22 11:23:00,
2013-04-22 06:28:00,37.8,35.4,30.02,North,0,1.6,3.4,91,0.00,,,0.00,WUHU216HW,2013-04-22 11:28:00,
2013-04-22 06:33:00,37.8,35.4,30.02,NW,315,1.8,2.0,91,0.00,,,0.00,WUHU216HW,2013-04-22 11:33:00,
2013-04-22 06:38:00,37.8,35.4,30.02,NNW,338,2.5,4.3,91,0.00,,,0.00,WUHU216HW,2013-04-22 11:38:00,
2013-04-22 06:43:00,37.8,35.1,30.02,North,0,2.7,4.3,90,0.00,,,0.00,WUHU216HW,2013-04-22 11:43:00,
2013-04-22 06:48:00,37.8,35.1,30.02,North,0,1.1,4.0,90,0.00,,,0.00,WUHU216HW,2013-04-22 11:48:00,
2013-04-22 06:53:00,37.8,35.1,30.03,NNW,338,2.9,4.0,90,0.00,,,0.00,WUHU216HW,2013-04-22 11:53:00,
2013-04-22 06:58:00,37.8,35.1,30.03,NNE,23,0.9,5.1,90,0.00,,,0.00,WUHU216HW,2013-04-22 11:58:00,
2013-04-22 07:04:00,37.8,35.1,30.04,North,0,1.3,5.1,90,0.00,,,0.00,WUHU216HW,2013-04-22 12:04:00,
2013-04-22 07:09:00,37.8,35.1,30.04,NNE,23,3.6,3.6,90,0.00,,,0.00,WUHU216HW,2013-04-22 12:09:00,
2013-04-22 07:14:00,37.8,35.1,30.04,NNE,23,1.6,5.4,90,0.00,,,0.00,WUHU216HW,2013-04-22 12:14:00,
2013-04-22 07:19:00,37.8,35.1,30.04,North,0,1.6,5.4,90,0.00,,,0.00,WUHU216HW,2013-04-22 12:19:00,
2013-04-22 07:24:00,37.8,35.1,30.04,North,0,1.1,3.4,90,0.00,,,0.00,WUHU216HW,2013-04-22 12:24:00,
2013-04-22 07:29:00,37.8,35.1,30.04,North,0,3.4,3.4,90,0.00,,,0.00,WUHU216HW,2013-04-22 12:29:00,
2013-04-22 07:34:00,37.8,35.1,30.04,North,0,1.3,3.4,90,0.00,,,0.00,WUHU216HW,2013-04-22 12:34:00,
2013-04-22 07:39:00,37.8,35.1,30.04,North,0,1.1,2.5,90,0.00,,,0.00,WUHU216HW,2013-04-22 12:39:00,
2013-04-22 07:44:00,37.8,35.1,30.04,North,0,1.1,3.1,90,0.00,,,0.00,WUHU216HW,2013-04-22 12:44:00,
2013-04-22 07:50:00,38.0,35.3,30.04,North,0,1.1,3.4,90,0.00,,,0.00,WUHU216HW,2013-04-22 12:50:00,
2013-04-22 07:55:00,38.0,35.3,30.04,North,0,1.1,3.4,90,0.00,,,0.00,WUHU216HW,2013-04-22 12:55:00,
2013-04-22 08:00:00,37.8,35.1,30.04,North,0,2.7,4.5,90,0.00,,,0.00,WUHU216HW,2013-04-22 13:00:00,
2013-04-22 08:05:00,38.0,35.3,30.04,North,0,1.3,4.5,90,0.00,,,0.00,WUHU216HW,2013-04-22 13:05:00,
2013-04-22 08:10:00,38.0,35.3,30.04,North,0,2.0,3.8,90,0.00,,,0.00,WUHU216HW,2013-04-22 13:10:00,
2013-04-22 08:15:00,38.0,35.3,30.04,North,0,1.3,3.8,90,0.00,,,0.00,WUHU216HW,2013-04-22 13:15:00,
2013-04-22 08:20:00,38.2,35.5,30.04,ENE,68,2.0,4.0,90,0.00,,,0.00,WUHU216HW,2013-04-22 13:20:00,
2013-04-22 08:25:00,38.2,35.5,30.04,East,90,4.3,5.4,90,0.00,,,0.00,WUHU216HW,2013-04-22 13:25:00,
2013-04-22 08:30:00,38.2,35.5,30.04,NNE,23,3.6,5.4,90,0.00,,,0.00,WUHU216HW,2013-04-22 13:30:00,
2013-04-22 08:36:00,38.3,35.6,30.03,North,0,1.8,3.6,90,0.00,,,0.00,WUHU216HW,2013-04-22 13:36:00,
2013-04-22 08:41:00,38.3,35.4,30.03,North,0,2.7,4.3,89,0.00,,,0.00,WUHU216HW,2013-04-22 13:41:00,
2013-04-22 08:46:00,38.5,35.6,30.03,NE,45,4.7,4.7,89,0.00,,,0.00,WUHU216HW,2013-04-22 13:46:00,
2013-04-22 08:51:00,38.5,35.6,30.02,ESE,113,2.5,4.7,89,0.00,,,0.00,WUHU216HW,2013-04-22 13:51:00,
2013-04-22 08:56:00,38.7,35.7,30.03,NNW,338,6.3,6.3,89,0.00,,,0.00,WUHU216HW,2013-04-22 13:56:00,
2013-04-22 09:01:00,38.7,35.5,30.03,East,90,1.8,6.3,88,0.00,,,0.00,WUHU216HW,2013-04-22 14:01:00,
2013-04-22 09:06:00,38.9,35.7,30.03,North,0,2.7,6.7,88,0.00,,,0.00,WUHU216HW,2013-04-22 14:06:00,
2013-04-22 09:11:00,39.1,35.5,30.03,North,0,1.8,6.7,87,0.00,,,0.00,WUHU216HW,2013-04-22 14:11:00,
2013-04-22 09:17:00,39.2,35.6,30.03,NNE,23,2.9,5.4,87,0.00,,,0.00,WUHU216HW,2013-04-22 14:17:00,
2013-04-22 09:22:00,39.2,35.6,30.03,NE,45,3.4,7.2,87,0.00,,,0.00,WUHU216HW,2013-04-22 14:22:00,
2013-04-22 09:27:00,39.2,35.6,30.03,ENE,68,5.4,7.2,87,0.00,,,0.00,WUHU216HW,2013-04-22 14:27:00,
2013-04-22 09:32:00,39.2,35.6,30.02,ENE,68,5.6,7.2,87,0.00,,,0.00,WUHU216HW,2013-04-22 14:32:00,
2013-04-22 09:37:00,39.4,35.6,30.03,ENE,68,1.8,7.2,86,0.00,,,0.00,WUHU216HW,2013-04-22 14:37:00,
2013-04-22 09:42:00,39.4,35.6,30.03,NE,45,4.3,6.5,86,0.00,,,0.00,WUHU216HW,2013-04-22 14:42:00,
2013-04-22 09:47:00,39.4,35.6,30.04,East,90,3.4,6.5,86,0.00,,,0.00,WUHU216HW,2013-04-22 14:47:00,
2013-04-22 09:53:00,39.4,35.3,30.04,ENE,68,1.8,5.8,85,0.00,,,0.00,WUHU216HW,2013-04-22 14:53:00,
2013-04-22 09:58:00,39.2,35.4,30.04,ENE,68,4.5,5.8,86,0.00,,,0.00,WUHU216HW,2013-04-22 14:58:00,
2013-04-22 10:03:00,39.2,35.4,30.04,ENE,68,1.6,5.4,86,0.00,,,0.00,WUHU216HW,2013-04-22 15:03:00,
2013-04-22 10:08:00,39.4,35.6,30.05,NNE,23,3.4,6.5,86,0.00,,,0.00,WUHU216HW,2013-04-22 15:08:00,
2013-04-22 10:13:00,39.2,35.4,30.04,East,90,3.1,6.5,86,0.00,,,0.00,WUHU216HW,2013-04-22 15:13:00,
2013-04-22 10:18:00,39.6,35.7,30.05,North,0,1.1,4.9,86,0.00,,,0.00,WUHU216HW,2013-04-22 15:18:00,
2013-04-22 10:23:00,39.6,35.7,30.05,NNE,23,2.0,4.7,86,0.00,,,0.00,WUHU216HW,2013-04-22 15:23:00,
2013-04-22 10:28:00,39.6,35.7,30.05,WSW,248,1.8,2.5,86,0.00,,,0.00,WUHU216HW,2013-04-22 15:28:00,
2013-04-22 10:34:00,39.6,35.7,30.05,NE,45,4.5,4.5,86,0.00,,,0.00,WUHU216HW,2013-04-22 15:34:00,
2013-04-22 10:39:00,39.6,35.5,30.04,NE,45,3.6,5.1,85,0.00,,,0.00,WUHU216HW,2013-04-22 15:39:00,
2013-04-22 10:44:00,39.4,35.6,30.05,SW,225,4.0,4.0,86,0.00,,,0.00,WUHU216HW,2013-04-22 15:44:00,
2013-04-22 10:49:00,39.4,35.6,30.04,North,0,2.0,4.7,86,0.00,,,0.00,WUHU216HW,2013-04-22 15:49:00,
2013-04-22 10:54:00,39.6,35.7,30.04,NE,45,3.6,4.7,86,0.00,,,0.00,WUHU216HW,2013-04-22 15:54:00,
2013-04-22 10:59:00,39.8,35.9,30.04,East,90,3.4,3.6,86,0.00,,,0.00,WUHU216HW,2013-04-22 15:59:00,
2013-04-22 11:04:00,39.6,35.7,30.04,NNE,23,1.6,5.1,86,0.00,,,0.00,WUHU216HW,2013-04-22 16:04:00,
2013-04-22 11:09:00,39.8,35.9,30.04,East,90,4.3,5.1,86,0.00,,,0.00,WUHU216HW,2013-04-22 16:09:00,
2013-04-22 11:15:00,39.6,35.7,30.04,ENE,68,2.5,6.3,86,0.00,,,0.00,WUHU216HW,2013-04-22 16:15:00,
2013-04-22 11:20:00,39.8,35.9,30.03,ENE,68,3.8,6.3,86,0.00,,,0.00,WUHU216HW,2013-04-22 16:20:00,
2013-04-22 11:25:00,40.0,36.1,30.03,NNE,23,1.3,5.1,86,0.00,,,0.00,WUHU216HW,2013-04-22 16:25:00,
2013-04-22 11:30:00,40.0,36.1,30.03,NE,45,4.7,6.5,86,0.00,,,0.00,WUHU216HW,2013-04-22 16:30:00,
2013-04-22 11:35:00,40.0,36.1,30.02,North,0,4.7,6.5,86,0.00,,,0.00,WUHU216HW,2013-04-22 16:35:00,
2013-04-22 11:40:00,40.0,36.1,30.03,North,0,2.9,4.7,86,0.00,,,0.00,WUHU216HW,2013-04-22 16:40:00,
2013-04-22 11:45:00,40.0,36.1,30.03,North,0,3.1,4.5,86,0.00,,,0.00,WUHU216HW,2013-04-22 16:45:00,
2013-04-22 11:50:00,39.8,35.9,30.02,NNE,23,4.5,5.1,86,0.00,,,0.00,WUHU216HW,2013-04-22 16:50:00,
2013-04-22 11:55:00,39.8,35.7,30.02,NNE,23,2.9,6.5,85,0.00,,,0.00,WUHU216HW,2013-04-22 16:55:00,
2013-04-22 12:01:00,39.6,35.5,30.02,NNE,23,5.6,6.5,85,0.00,,,0.00,WUHU216HW,2013-04-22 17:01:00,
2013-04-22 12:06:00,39.4,35.3,30.01,ENE,68,5.1,5.6,85,0.00,,,0.00,WUHU216HW,2013-04-22 17:06:00,
2013-04-22 12:11:00,39.2,34.8,30.01,East,90,3.4,8.1,84,0.00,,,0.00,WUHU216HW,2013-04-22 17:11:00,
2013-04-22 12:16:00,39.4,35.3,30.01,North,0,2.0,8.1,85,0.00,,,0.00,WUHU216HW,2013-04-22 17:16:00,
2013-04-22 12:21:00,39.6,35.2,30.01,North,0,1.6,5.1,84,0.00,,,0.00,WUHU216HW,2013-04-22 17:21:00,
2013-04-22 12:26:00,39.6,35.2,30.01,NNE,23,5.6,6.9,84,0.00,,,0.00,WUHU216HW,2013-04-22 17:26:00,
2013-04-22 12:31:00,39.6,35.2,30.01,East,90,3.8,7.4,84,0.00,,,0.00,WUHU216HW,2013-04-22 17:31:00,
2013-04-22 12:36:00,39.6,35.2,30.01,NE,45,4.0,7.4,84,0.00,,,0.00,WUHU216HW,2013-04-22 17:36:00,
2013-04-22 12:42:00,39.4,35.0,30.00,NNE,23,3.4,7.4,84,0.00,,,0.00,WUHU216HW,2013-04-22 17:42:00,
2013-04-22 12:47:00,39.4,34.7,30.00,East,90,4.5,7.8,83,0.00,,,0.00,WUHU216HW,2013-04-22 17:47:00,
2013-04-22 12:52:00,39.4,35.0,29.99,NNE,23,4.0,7.8,84,0.00,,,0.00,WUHU216HW,2013-04-22 17:52:00,
2013-04-22 12:57:00,39.6,34.8,29.99,ENE,68,6.9,11.0,83,0.00,,,0.00,WUHU216HW,2013-04-22 17:57:00,
2013-04-22 13:02:00,39.4,34.7,29.99,NE,45,2.7,11.0,83,0.00,,,0.00,WUHU216HW,2013-04-22 18:02:00,
2013-04-22 13:07:00,39.4,34.7,29.99,ENE,68,5.4,9.6,83,0.00,,,0.00,WUHU216HW,2013-04-22 18:07:00,
2013-04-22 13:12:00,39.6,34.8,29.99,NE,45,3.8,7.6,83,0.00,,,0.00,WUHU216HW,2013-04-22 18:12:00,
2013-04-22 13:18:00,39.6,34.8,29.98,ENE,68,4.5,9.6,83,0.00,,,0.00,WUHU216HW,2013-04-22 18:18:00,
2013-04-22 13:23:00,39.6,34.8,29.98,NNE,23,2.0,9.6,83,0.00,,,0.00,WUHU216HW,2013-04-22 18:23:00,
2013-04-22 13:28:00,39.6,34.8,29.99,ESE,113,5.4,7.6,83,0.00,,,0.00,WUHU216HW,2013-04-22 18:28:00,
2013-04-22 13:33:00,39.6,34.8,29.99,ENE,68,6.3,7.6,83,0.00,,,0.00,WUHU216HW,2013-04-22 18:33:00,
2013-04-22 13:38:00,39.4,34.7,29.99,NNE,23,1.8,8.5,83,0.00,,,0.00,WUHU216HW,2013-04-22 18:38:00,
2013-04-22 13:43:00,39.4,34.7,29.99,North,0,3.4,8.5,83,0.00,,,0.00,WUHU216HW,2013-04-22 18:43:00,
2013-04-22 13:48:00,39.4,35.0,29.99,NNW,338,1.6,6.0,84,0.00,,,0.00,WUHU216HW,2013-04-22 18:48:00,
2013-04-22 13:53:00,39.2,34.8,29.99,ENE,68,1.8,6.0,84,0.02,,,0.02,WUHU216HW,2013-04-22 18:53:00,
2013-04-22 13:58:00,39.2,35.4,29.98,North,0,5.4,5.4,86,0.02,,,0.02,WUHU216HW,2013-04-22 18:58:00,
2013-04-22 14:03:00,39.2,35.6,29.98,NE,45,0.7,5.4,87,0.03,,,0.03,WUHU216HW,2013-04-22 19:03:00,
2013-04-22 14:09:00,39.2,35.6,29.98,NNE,23,2.5,5.4,87,0.03,,,0.03,WUHU216HW,2013-04-22 19:09:00,
2013-04-22 14:14:00,39.1,35.5,29.97,ENE,68,4.0,4.5,87,0.03,,,0.03,WUHU216HW,2013-04-22 19:14:00,
2013-04-22 14:19:00,38.9,35.7,29.97,NNE,23,2.9,4.0,88,0.03,,,0.03,WUHU216HW,2013-04-22 19:19:00,
2013-04-22 14:24:00,38.9,35.7,29.98,NE,45,4.0,4.9,88,0.03,,,0.03,WUHU216HW,2013-04-22 19:24:00,
2013-04-22 14:29:00,38.9,35.7,29.97,NE,45,1.3,5.1,88,0.03,,,0.03,WUHU216HW,2013-04-22 19:29:00,
2013-04-22 14:34:00,38.7,35.7,29.97,NNE,23,4.7,5.1,89,0.04,,,0.04,WUHU216HW,2013-04-22 19:34:00,
2013-04-22 14:39:00,38.7,36.0,29.97,NW,315,5.4,5.4,90,0.06,,,0.06,WUHU216HW,2013-04-22 19:39:00,
2013-04-22 14:44:00,38.7,36.0,29.97,NNE,23,1.8,5.4,90,0.07,,,0.07,WUHU216HW,2013-04-22 19:44:00,
2013-04-22 14:49:00,38.5,35.8,29.97,North,0,1.3,3.6,90,0.08,,,0.08,WUHU216HW,2013-04-22 19:49:00,
2013-04-22 14:55:00,38.5,35.8,29.97,NNE,23,1.3,3.6,90,0.06,,,0.08,WUHU216HW,2013-04-22 19:55:00,
2013-04-22 15:00:00,38.5,35.8,29.96,NNE,23,1.6,3.6,90,0.06,,,0.08,WUHU216HW,2013-04-22 20:00:00,
2013-04-22 15:05:00,38.5,35.8,29.98,ENE,68,2.5,3.6,90,0.06,,,0.09,WUHU216HW,2013-04-22 20:05:00,
2013-04-22 15:10:00,38.5,35.8,29.99,North,0,3.4,3.4,90,0.06,,,0.09,WUHU216HW,2013-04-22 20:10:00,
2013-04-22 15:15:00,38.5,35.8,29.98,NNE,23,2.5,3.6,90,0.07,,,0.10,WUHU216HW,2013-04-22 20:15:00,
2013-04-22 15:20:00,38.2,35.5,29.98,NNE,23,4.0,4.9,90,0.07,,,0.10,WUHU216HW,2013-04-22 20:20:00,
2013-04-22 15:25:00,37.8,35.1,29.97,NNE,23,2.5,4.9,90,0.08,,,0.11,WUHU216HW,2013-04-22 20:25:00,
2013-04-22 15:30:00,37.4,34.5,29.97,NNE,23,2.5,2.9,89,0.08,,,0.12,WUHU216HW,2013-04-22 20:30:00,
2013-04-22 15:36:00,36.9,33.9,29.97,NNE,23,1.8,6.3,89,0.08,,,0.13,WUHU216HW,2013-04-22 20:36:00,
2013-04-22 15:41:00,36.7,33.8,29.97,NNE,23,2.2,6.3,89,0.07,,,0.13,WUHU216HW,2013-04-22 20:41:00,
2013-04-22 15:46:00,36.4,33.4,29.97,North,0,1.8,4.5,89,0.07,,,0.14,WUHU216HW,2013-04-22 20:46:00,
2013-04-22 15:51:00,36.2,33.2,29.97,North,0,1.8,4.5,89,0.06,,,0.14,WUHU216HW,2013-04-22 20:51:00,
2013-04-22 15:56:00,36.0,33.0,29.97,NNE,23,1.8,3.1,89,0.06,,,0.14,WUHU216HW,2013-04-22 20:56:00,
2013-04-22 16:01:00,35.6,32.7,29.96,North,0,2.0,3.1,89,0.05,,,0.14,WUHU216HW,2013-04-22 21:01:00,
2013-04-22 16:06:00,35.5,32.5,29.96,North,0,1.1,2.9,89,0.05,,,0.14,WUHU216HW,2013-04-22 21:06:00,
2013-04-22 16:11:00,35.5,32.8,29.96,NNE,23,1.3,2.2,90,0.05,,,0.14,WUHU216HW,2013-04-22 21:11:00,
2013-04-22 16:16:00,35.3,32.6,29.95,North,0,0.7,2.2,90,0.04,,,0.14,WUHU216HW,2013-04-22 21:16:00,
2013-04-22 16:21:00,35.1,32.4,29.95,NNE,23,0.7,1.8,90,0.03,,,0.14,WUHU216HW,2013-04-22 21:21:00,
2013-04-22 16:26:00,34.9,32.2,29.95,East,90,3.6,3.6,90,0.02,,,0.14,WUHU216HW,2013-04-22 21:26:00,
2013-04-22 16:32:00,35.1,32.4,29.95,ENE,68,1.1,3.6,90,0.02,,,0.14,WUHU216HW,2013-04-22 21:32:00,
2013-04-22 16:37:00,35.3,32.9,29.95,NNW,338,2.9,2.9,91,0.01,,,0.14,WUHU216HW,2013-04-22 21:37:00,
2013-04-22 16:42:00,35.1,32.7,29.94,NNE,23,1.8,3.4,91,0.01,,,0.14,WUHU216HW,2013-04-22 21:42:00,
2013-04-22 16:47:00,34.9,32.5,29.94,NNE,23,2.5,3.4,91,0.00,,,0.14,WUHU216HW,2013-04-22 21:47:00,
2013-04-22 16:52:00,34.9,32.8,29.94,NNE,23,1.3,3.1,92,0.00,,,0.14,WUHU216HW,2013-04-22 21:52:00,
2013-04-22 16:57:00,34.7,32.6,29.94,NNE,23,1.6,2.9,92,0.00,,,0.14,WUHU216HW,2013-04-22 21:57:00,
2013-04-22 17:02:00,34.7,32.6,29.94,NE,45,1.1,3.8,92,0.00,,,0.14,WUHU216HW,2013-04-22 22:02:00,
2013-04-22 17:08:00,34.6,32.4,29.94,NE,45,2.9,3.8,92,0.00,,,0.14,WUHU216HW,2013-04-22 22:08:00,
2013-04-22 17:13:00,34.7,32.6,29.94,ENE,68,1.6,3.6,92,0.00,,,0.14,WUHU216HW,2013-04-22 22:13:00,
2013-04-22 17:18:00,34.7,32.6,29.95,South,180,2.9,3.6,92,0.00,,,0.14,WUHU216HW,2013-04-22 22:18:00,
2013-04-22 17:23:00,34.6,32.4,29.94,South,180,2.9,2.9,92,0.00,,,0.14,WUHU216HW,2013-04-22 22:23:00,
2013-04-22 17:28:00,34.6,32.4,29.95,South,180,1.1,2.9,92,0.00,,,0.14,WUHU216HW,2013-04-22 22:28:00,
2013-04-22 17:33:00,34.7,32.6,29.95,South,180,0.7,2.2,92,0.00,,,0.14,WUHU216HW,2013-04-22 22:33:00,
2013-04-22 17:38:00,34.7,32.6,29.94,South,180,1.1,2.9,92,0.00,,,0.14,WUHU216HW,2013-04-22 22:38:00,
2013-04-22 17:43:00,34.7,32.6,29.94,South,180,0.9,3.6,92,0.00,,,0.14,WUHU216HW,2013-04-22 22:43:00,
2013-04-22 17:49:00,34.6,32.4,29.94,South,180,1.1,2.7,92,0.00,,,0.14,WUHU216HW,2013-04-22 22:49:00,
2013-04-22 17:54:00,34.6,32.4,29.94,South,180,1.8,3.6,92,0.01,,,0.15,WUHU216HW,2013-04-22 22:54:00,
2013-04-22 17:59:00,34.6,32.4,29.95,South,180,0.7,3.6,92,0.01,,,0.15,WUHU216HW,2013-04-22 22:59:00,
2013-04-22 18:04:00,34.4,32.2,29.95,South,180,1.8,1.8,92,0.01,,,0.15,WUHU216HW,2013-04-22 23:04:00,
2013-04-22 18:09:00,34.4,32.2,29.94,South,180,0.2,2.7,92,0.01,,,0.15,WUHU216HW,2013-04-22 23:09:00,
2013-04-22 18:14:00,34.4,32.2,29.94,South,180,2.9,2.9,92,0.01,,,0.15,WUHU216HW,2013-04-22 23:14:00,
2013-04-22 18:19:00,34.4,32.2,29.94,South,180,1.1,2.9,92,0.01,,,0.15,WUHU216HW,2013-04-22 23:19:00,
2013-04-22 18:24:00,34.4,32.2,29.94,South,180,0.7,2.0,92,0.01,,,0.15,WUHU216HW,2013-04-22 23:24:00,
2013-04-22 18:29:00,34.4,32.2,29.94,South,180,1.1,2.0,92,0.01,,,0.15,WUHU216HW,2013-04-22 23:29:00,
2013-04-22 18:35:00,34.2,32.0,29.95,South,180,1.3,1.8,92,0.01,,,0.15,WUHU216HW,2013-04-22 23:35:00,
2013-04-22 18:40:00,34.2,32.0,29.94,South,180,2.2,2.2,92,0.01,,,0.15,WUHU216HW,2013-04-22 23:40:00,
2013-04-22 18:45:00,34.2,32.0,29.95,South,180,1.3,2.7,92,0.02,,,0.16,WUHU216HW,2013-04-22 23:45:00,
2013-04-22 18:50:00,34.2,32.0,29.95,South,180,3.8,3.8,92,0.02,,,0.16,WUHU216HW,2013-04-22 23:50:00,
2013-04-22 18:55:00,34.2,32.0,29.95,South,180,2.5,3.8,92,0.01,,,0.16,WUHU216HW,2013-04-22 23:55:00,
2013-04-22 19:00:00,34.2,32.0,29.95,South,180,0.4,3.8,92,0.01,,,0.16,WUHU216HW,2013-04-23 00:00:00,
2013-04-22 19:05:00,34.2,32.0,29.94,South,180,0.9,3.1,92,0.01,,,0.16,WUHU216HW,2013-04-23 00:05:00,
2013-04-22 19:10:00,34.2,32.3,29.94,South,180,1.1,3.1,93,0.01,,,0.16,WUHU216HW,2013-04-23 00:10:00,
2013-04-22 19:15:00,34.0,32.1,29.94,South,180,1.8,2.5,93,0.01,,,0.16,WUHU216HW,2013-04-23 00:15:00,
2013-04-22 19:21:00,34.0,32.1,29.94,South,180,1.1,1.8,93,0.01,,,0.16,WUHU216HW,2013-04-23 00:21:00,
2013-04-22 19:26:00,34.0,32.1,29.94,South,180,1.3,2.5,93,0.01,,,0.16,WUHU216HW,2013-04-23 00:26:00,
2013-04-22 19:31:00,34.0,32.1,29.94,South,180,0.9,2.5,93,0.01,,,0.16,WUHU216HW,2013-04-23 00:31:00,
2013-04-22 19:36:00,34.0,32.1,29.94,South,180,0.0,2.5,93,0.01,,,0.16,WUHU216HW,2013-04-23 00:36:00,
2013-04-22 19:41:00,34.0,32.1,29.95,NNW,338,2.5,2.5,93,0.01,,,0.16,WUHU216HW,2013-04-23 00:41:00,
2013-04-22 19:46:00,33.8,32.0,29.95,North,0,1.1,2.5,93,0.00,,,0.16,WUHU216HW,2013-04-23 00:46:00,
2013-04-22 19:51:00,33.8,32.0,29.95,North,0,0.0,2.5,93,0.00,,,0.16,WUHU216HW,2013-04-23 00:51:00,
2013-04-22 19:56:00,33.8,32.0,29.96,North,0,0.0,2.5,93,0.00,,,0.16,WUHU216HW,2013-04-23 00:56:00,
2013-04-22 20:02:00,33.8,32.0,29.96,North,0,0.0,0.0,93,0.00,,,0.16,WUHU216HW,2013-04-23 01:02:00,
2013-04-22 20:07:00,33.8,32.0,29.96,North,0,0.0,0.0,93,0.00,,,0.16,WUHU216HW,2013-04-23 01:07:00,
2013-04-22 20:12:00,33.8,32.0,29.96,North,0,0.0,0.0,93,0.00,,,0.16,WUHU216HW,2013-04-23 01:12:00,
2013-04-22 20:17:00,33.8,32.2,29.96,North,0,0.0,0.0,94,0.00,,,0.16,WUHU216HW,2013-04-23 01:17:00,
2013-04-22 20:22:00,33.8,32.2,29.96,North,0,0.0,0.0,94,0.00,,,0.16,WUHU216HW,2013-04-23 01:22:00,
2013-04-22 20:27:00,33.8,32.2,29.96,North,0,0.0,0.0,94,0.00,,,0.16,WUHU216HW,2013-04-23 01:27:00,
2013-04-22 20:32:00,33.8,32.2,29.96,North,0,0.0,0.0,94,0.00,,,0.16,WUHU216HW,2013-04-23 01:32:00,
2013-04-22 20:37:00,33.8,32.2,29.96,North,0,0.0,0.0,94,0.00,,,0.16,WUHU216HW,2013-04-23 01:37:00,
2013-04-22 20:43:00,33.7,32.0,29.96,North,0,0.0,0.0,94,0.00,,,0.16,WUHU216HW,2013-04-23 01:43:00,
2013-04-22 20:48:00,33.7,32.0,29.96,North,0,0.0,0.0,94,0.00,,,0.16,WUHU216HW,2013-04-23 01:48:00,
2013-04-22 20:53:00,33.7,32.0,29.96,North,0,0.0,0.0,94,0.00,,,0.16,WUHU216HW,2013-04-23 01:53:00,
2013-04-22 20:58:00,33.7,32.0,29.96,North,0,0.0,0.0,94,0.00,,,0.16,WUHU216HW,2013-04-23 01:58:00,
2013-04-22 21:03:00,33.7,31.8,29.96,North,0,0.0,0.0,93,0.00,,,0.16,WUHU216HW,2013-04-23 02:03:00,
2013-04-22 21:08:00,33.7,31.8,29.96,North,0,0.0,0.0,93,0.01,,,0.17,WUHU216HW,2013-04-23 02:08:00,
2013-04-22 21:13:00,33.7,31.8,29.96,North,0,0.0,0.0,93,0.01,,,0.17,WUHU216HW,2013-04-23 02:13:00,
2013-04-22 21:18:00,33.5,31.6,29.96,North,0,0.0,0.0,93,0.01,,,0.17,WUHU216HW,2013-04-23 02:18:00,
2013-04-22 21:24:00,33.7,31.8,29.96,North,0,0.0,0.0,93,0.01,,,0.17,WUHU216HW,2013-04-23 02:24:00,
2013-04-22 21:29:00,33.5,31.6,29.96,North,0,0.0,0.0,93,0.01,,,0.17,WUHU216HW,2013-04-23 02:29:00,
2013-04-22 21:34:00,33.5,31.6,29.96,North,0,0.0,0.0,93,0.01,,,0.17,WUHU216HW,2013-04-23 02:34:00,
2013-04-22 21:39:00,33.5,31.6,29.96,North,0,0.0,0.0,93,0.01,,,0.17,WUHU216HW,2013-04-23 02:39:00,
2013-04-22 21:44:00,33.5,31.6,29.96,North,0,0.0,0.0,93,0.01,,,0.17,WUHU216HW,2013-04-23 02:44:00,
2013-04-22 21:49:00,33.5,31.6,29.96,North,0,0.0,0.0,93,0.01,,,0.17,WUHU216HW,2013-04-23 02:49:00,
2013-04-22 21:54:00,33.5,31.6,29.96,North,0,0.0,0.0,93,0.01,,,0.17,WUHU216HW,2013-04-23 02:54:00,
2013-04-22 21:59:00,33.5,31.6,29.96,North,0,0.0,0.0,93,0.01,,,0.17,WUHU216HW,2013-04-23 02:59:00,
2013-04-22 22:04:00,33.5,31.6,29.96,North,0,0.0,0.0,93,0.00,,,0.17,WUHU216HW,2013-04-23 03:04:00,
2013-04-22 22:09:00,33.5,31.6,29.96,North,0,0.0,0.0,93,0.00,,,0.17,WUHU216HW,2013-04-23 03:09:00,
2013-04-22 22:14:00,33.5,31.6,29.96,North,0,0.0,0.0,93,0.00,,,0.17,WUHU216HW,2013-04-23 03:14:00,
2013-04-22 22:20:00,33.3,31.4,29.96,North,0,0.0,0.0,93,0.00,,,0.17,WUHU216HW,2013-04-23 03:20:00,
2013-04-22 22:25:00,33.5,31.6,29.96,North,0,0.0,0.0,93,0.00,,,0.17,WUHU216HW,2013-04-23 03:25:00,
2013-04-22 22:30:00,33.5,31.6,29.96,North,0,0.0,0.0,93,0.00,,,0.17,WUHU216HW,2013-04-23 03:30:00,
2013-04-22 22:35:00,33.3,31.4,29.96,North,0,0.0,0.0,93,0.00,,,0.17,WUHU216HW,2013-04-23 03:35:00,
2013-04-22 22:40:00,33.3,31.4,29.96,North,0,0.0,0.0,93,0.00,,,0.17,WUHU216HW,2013-04-23 03:40:00,
2013-04-22 22:45:00,33.5,31.6,29.96,North,0,0.0,0.0,93,0.00,,,0.17,WUHU216HW,2013-04-23 03:45:00,
2013-04-22 22:50:00,33.3,31.4,29.97,North,0,0.0,0.0,93,0.00,,,0.17,WUHU216HW,2013-04-23 03:50:00,
2013-04-22 22:55:00,33.3,31.4,29.97,North,0,0.0,0.0,93,0.00,,,0.17,WUHU216HW,2013-04-23 03:55:00,
2013-04-22 23:00:00,33.3,31.4,29.98,North,0,0.0,0.0,93,0.00,,,0.17,WUHU216HW,2013-04-23 04:00:00,
2013-04-22 23:01:00,33.3,31.4,29.98,North,0,0.0,0.0,93,0.00,,,0.17,WUHU216HW,2013-04-23 04:01:00,
2013-04-22 23:02:00,33.3,31.4,29.98,North,0,0.0,0.0,93,0.00,,,0.17,WUHU216HW,2013-04-23 04:02:00,
2013-04-22 23:07:00,33.5,31.6,29.98,North,0,0.0,0.0,93,0.00,,,0.17,WUHU216HW,2013-04-23 04:07:00,
2013-04-22 23:12:00,33.3,31.4,29.98,North,0,0.0,0.0,93,0.00,,,0.17,WUHU216HW,2013-04-23 04:12:00,
2013-04-22 23:17:00,33.3,31.4,29.98,North,0,0.0,0.0,93,0.00,,,0.17,WUHU216HW,2013-04-23 04:17:00,
2013-04-22 23:22:00,33.3,31.4,29.96,North,0,0.0,0.0,93,0.00,,,0.17,WUHU216HW,2013-04-23 04:22:00,
2013-04-22 23:27:00,33.3,31.4,29.97,North,0,0.0,0.0,93,0.00,,,0.17,WUHU216HW,2013-04-23 04:27:00,
2013-04-22 23:32:00,33.3,31.4,29.97,North,0,0.0,0.0,93,0.00,,,0.17,WUHU216HW,2013-04-23 04:32:00,
2013-04-22 23:38:00,33.3,31.4,29.96,North,0,0.0,0.0,93,0.00,,,0.17,WUHU216HW,2013-04-23 04:38:00,
2013-04-22 23:43:00,33.1,31.3,29.96,North,0,0.0,0.0,93,0.00,,,0.17,WUHU216HW,2013-04-23 04:43:00,
2013-04-22 23:48:00,33.3,31.4,29.97,North,0,0.0,0.0,93,0.00,,,0.17,WUHU216HW,2013-04-23 04:48:00,
2013-04-22 23:53:00,33.3,31.4,29.96,North,0,0.0,0.0,93,0.00,,,0.17,WUHU216HW,2013-04-23 04:53:00,
2013-04-22 23:58:00,33.3,31.4,29.96,North,0,0.0,0.0,93,0.00,,,0.17,WUHU216HW,2013-04-23 04:58:00,